createdAt,value
2023-01-22T00:01:08.766Z,1.50
2023-01-22T00:03:37.004Z,1.50
2023-01-22T00:06:04.190Z,1.60
2023-01-22T00:08:31.161Z,1.60
2023-01-22T00:10:57.878Z,1.60
2023-01-22T00:13:26.593Z,1.50
2023-01-22T00:15:53.912Z,1.50
2023-01-22T00:18:20.486Z,1.50
2023-01-22T00:20:48.448Z,1.60
2023-01-22T00:23:15.268Z,1.60
2023-01-22T00:25:42.179Z,1.60
2023-01-22T00:28:09.377Z,1.60
2023-01-22T00:30:35.943Z,1.60
2023-01-22T00:33:02.546Z,1.60
2023-01-22T00:35:29.176Z,1.70
2023-01-22T00:37:55.766Z,1.60
2023-01-22T00:40:22.757Z,1.60
2023-01-22T00:42:49.323Z,1.60
2023-01-22T00:45:16.117Z,1.60
2023-01-22T00:47:42.733Z,1.60
2023-01-22T00:50:10.444Z,1.60
2023-01-22T00:52:40.191Z,1.70
2023-01-22T00:55:07.403Z,1.60
2023-01-22T00:57:34.067Z,1.60
2023-01-22T01:00:00.616Z,1.60
2023-01-22T01:02:27.264Z,1.70
2023-01-22T01:04:53.955Z,1.60
2023-01-22T01:07:20.622Z,1.60
2023-01-22T01:09:47.253Z,1.60
2023-01-22T01:12:13.804Z,1.60
2023-01-22T01:14:40.360Z,1.60
2023-01-22T01:17:06.896Z,1.70
2023-01-22T01:19:33.614Z,1.70
2023-01-22T01:22:00.393Z,1.70
2023-01-22T01:24:27.040Z,1.70
2023-01-22T01:26:53.707Z,1.70
2023-01-22T01:29:20.285Z,1.70
2023-01-22T01:31:47.641Z,1.70
2023-01-22T01:34:14.281Z,1.70
2023-01-22T01:36:48.757Z,1.70
2023-01-22T01:39:16.452Z,1.70
2023-01-22T01:41:43.115Z,1.70
2023-01-22T01:44:19.286Z,1.60
2023-01-22T01:47:05.115Z,1.70
2023-01-22T01:49:51.873Z,1.70
2023-01-22T01:52:18.920Z,1.70
2023-01-22T01:54:49.411Z,1.70
2023-01-22T01:57:22.307Z,1.70
2023-01-22T01:59:50.873Z,1.70
2023-01-22T02:02:20.314Z,1.60
2023-01-22T02:04:48.054Z,1.70
2023-01-22T02:07:14.875Z,1.70
2023-01-22T02:09:41.484Z,1.70
2023-01-22T02:12:09.404Z,1.80
2023-01-22T02:14:41.177Z,1.80
2023-01-22T02:17:11.678Z,1.80
2023-01-22T02:19:44.048Z,1.80
2023-01-22T02:22:19.829Z,1.90
2023-01-22T02:24:46.400Z,1.80
2023-01-22T02:27:13.197Z,1.80
2023-01-22T02:29:40.213Z,1.80
2023-01-22T02:32:06.856Z,1.80
2023-01-22T02:34:33.429Z,1.80
2023-01-22T02:37:01.062Z,1.80
2023-01-22T02:39:27.653Z,1.80
2023-01-22T02:41:55.614Z,1.80
2023-01-22T02:44:22.483Z,1.80
2023-01-22T02:46:49.020Z,1.70
2023-01-22T02:49:15.985Z,1.90
2023-01-22T02:51:42.625Z,1.90
2023-01-22T02:54:09.211Z,1.90
2023-01-22T02:56:35.881Z,1.80
2023-01-22T02:59:03.721Z,1.80
2023-01-22T03:01:30.532Z,1.80
2023-01-22T03:04:01.406Z,1.80
2023-01-22T03:06:29.782Z,1.80
2023-01-22T03:09:00.768Z,1.70
2023-01-22T03:11:29.518Z,1.80
2023-01-22T03:14:15.258Z,1.80
2023-01-22T03:17:02.140Z,1.80
2023-01-22T03:19:47.761Z,1.80
2023-01-22T03:22:15.736Z,1.80
2023-01-22T03:24:43.459Z,1.80
2023-01-22T03:27:10.388Z,1.70
2023-01-22T03:29:38.308Z,1.80
2023-01-22T03:32:06.076Z,1.90
2023-01-22T03:34:32.750Z,1.80
2023-01-22T03:36:59.394Z,1.80
2023-01-22T03:39:27.313Z,1.80
2023-01-22T03:41:54.077Z,1.80
2023-01-22T03:44:20.742Z,1.80
2023-01-22T03:46:47.324Z,1.80
2023-01-22T03:49:14.514Z,1.80
2023-01-22T03:51:42.277Z,1.80
2023-01-22T03:54:11.781Z,1.80
2023-01-22T03:56:39.013Z,1.80
2023-01-22T03:59:06.001Z,1.80
2023-01-22T04:01:32.666Z,1.70
2023-01-22T04:03:59.961Z,1.70
2023-01-22T04:06:27.318Z,1.80
2023-01-22T04:08:55.081Z,1.80
2023-01-22T04:11:22.221Z,1.80
2023-01-22T04:13:49.007Z,1.80
2023-01-22T04:16:16.263Z,1.80
2023-01-22T04:18:42.897Z,1.80
2023-01-22T04:21:09.584Z,1.80
2023-01-22T04:23:36.246Z,1.80
2023-01-22T04:26:02.986Z,1.70
2023-01-22T04:28:29.617Z,1.90
2023-01-22T04:30:56.518Z,1.80
2023-01-22T04:33:23.328Z,1.90
2023-01-22T04:35:54.215Z,1.90
2023-01-22T04:38:21.018Z,1.90
2023-01-22T04:40:47.637Z,1.90
2023-01-22T04:43:14.255Z,1.90
2023-01-22T04:45:40.856Z,1.90
2023-01-22T04:48:08.515Z,1.90
2023-01-22T04:50:35.592Z,1.90
2023-01-22T04:53:02.905Z,1.90
2023-01-22T04:55:30.146Z,1.90
2023-01-22T04:58:00.651Z,1.90
2023-01-22T05:00:29.433Z,2.00
2023-01-22T05:03:01.011Z,2.00
2023-01-22T05:05:29.148Z,2.10
2023-01-22T05:07:55.949Z,2.00
2023-01-22T05:10:23.831Z,2.00
2023-01-22T05:12:50.799Z,2.00
2023-01-22T05:15:24.540Z,2.00
2023-01-22T05:17:52.692Z,2.00
2023-01-22T05:20:19.936Z,2.00
2023-01-22T05:22:46.852Z,2.00
2023-01-22T05:25:13.579Z,2.10
2023-01-22T05:27:40.240Z,2.00
2023-01-22T05:30:07.750Z,2.00
2023-01-22T05:32:34.716Z,2.00
2023-01-22T05:35:01.738Z,2.00
2023-01-22T05:37:28.393Z,2.10
2023-01-22T05:39:54.992Z,2.00
2023-01-22T05:42:21.566Z,2.10
2023-01-22T05:44:48.285Z,2.00
2023-01-22T05:47:15.810Z,2.00
2023-01-22T05:49:42.513Z,2.00
2023-01-22T05:52:10.724Z,2.10
2023-01-22T05:54:39.604Z,2.10
2023-01-22T05:57:06.887Z,2.10
2023-01-22T05:59:33.763Z,2.10
2023-01-22T06:02:00.530Z,2.00
2023-01-22T06:04:27.406Z,2.00
2023-01-22T06:06:54.227Z,2.10
2023-01-22T06:09:20.993Z,2.10
2023-01-22T06:11:48.045Z,2.10
2023-01-22T06:14:14.974Z,2.10
2023-01-22T06:16:41.937Z,2.10
2023-01-22T06:19:09.242Z,2.10
2023-01-22T06:21:36.025Z,2.10
2023-01-22T06:24:02.614Z,2.10
2023-01-22T06:26:29.390Z,2.10
2023-01-22T06:28:56.130Z,2.00
2023-01-22T06:31:23.094Z,2.10
2023-01-22T06:33:49.883Z,2.10
2023-01-22T06:36:16.772Z,2.20
2023-01-22T06:38:43.565Z,2.10
2023-01-22T06:41:10.406Z,2.10
2023-01-22T06:43:37.640Z,2.20
2023-01-22T06:46:04.623Z,2.20
2023-01-22T06:48:31.575Z,2.20
2023-01-22T06:50:59.750Z,2.20
2023-01-22T06:53:27.320Z,2.20
2023-01-22T06:55:54.127Z,2.20
2023-01-22T06:58:20.970Z,2.20
2023-01-22T07:00:47.559Z,2.30
2023-01-22T07:03:14.227Z,2.30
2023-01-22T07:05:40.896Z,2.20
2023-01-22T07:08:07.714Z,2.10
2023-01-22T07:10:34.335Z,2.10
2023-01-22T07:13:01.503Z,2.10
2023-01-22T07:15:28.267Z,2.20
2023-01-22T07:17:55.115Z,2.20
2023-01-22T07:20:23.301Z,2.20
2023-01-22T07:22:51.410Z,2.20
2023-01-22T07:25:19.370Z,2.20
2023-01-22T07:27:46.144Z,2.20
2023-01-22T07:30:13.303Z,2.10
2023-01-22T07:32:39.971Z,2.20
2023-01-22T07:35:06.931Z,2.20
2023-01-22T07:37:33.665Z,2.20
2023-01-22T07:40:00.185Z,2.20
2023-01-22T07:42:26.795Z,2.30
2023-01-22T07:44:53.424Z,2.30
2023-01-22T07:47:20.036Z,2.20
2023-01-22T07:49:46.664Z,2.20
2023-01-22T07:52:13.352Z,2.20
2023-01-22T07:54:39.899Z,2.30
2023-01-22T07:57:06.583Z,2.30
2023-01-22T07:59:35.395Z,2.30
2023-01-22T08:02:03.584Z,2.20
2023-01-22T08:04:30.513Z,2.20
2023-01-22T08:06:57.185Z,2.30
2023-01-22T08:09:25.551Z,2.30
2023-01-22T08:11:52.958Z,2.30
2023-01-22T08:14:20.055Z,2.30
2023-01-22T08:16:46.923Z,2.30
2023-01-22T08:19:14.135Z,2.40
2023-01-22T08:21:40.855Z,2.40
2023-01-22T08:24:08.244Z,2.60
2023-01-22T08:26:35.147Z,2.60
2023-01-22T08:29:05.328Z,2.60
2023-01-22T08:31:33.687Z,2.50
2023-01-22T08:34:00.549Z,2.50
2023-01-22T08:36:27.747Z,2.50
2023-01-22T08:38:54.516Z,2.60
2023-01-22T08:41:21.971Z,2.60
2023-01-22T08:43:48.853Z,2.70
2023-01-22T08:46:15.509Z,2.70
2023-01-22T08:48:44.046Z,2.80
2023-01-22T08:51:12.281Z,2.80
2023-01-22T08:53:39.144Z,2.80
2023-01-22T08:56:06.308Z,2.80
2023-01-22T08:58:33.149Z,2.90
2023-01-22T09:01:00.082Z,2.90
2023-01-22T09:03:26.925Z,3.00
2023-01-22T09:05:53.774Z,2.90
2023-01-22T09:08:21.638Z,2.90
2023-01-22T09:10:48.349Z,3.00
2023-01-22T09:13:14.995Z,3.00
2023-01-22T09:15:41.648Z,3.00
2023-01-22T09:18:08.317Z,3.00
2023-01-22T09:20:34.940Z,3.00
2023-01-22T09:23:01.955Z,3.00
2023-01-22T09:25:29.221Z,2.90
2023-01-22T09:28:04.889Z,2.90
2023-01-22T09:30:32.069Z,2.90
2023-01-22T09:32:59.213Z,2.90
2023-01-22T09:35:27.192Z,2.90
2023-01-22T09:37:54.772Z,2.90
2023-01-22T09:40:36.334Z,2.90
2023-01-22T09:43:21.439Z,3.00
2023-01-22T09:45:52.904Z,2.90
2023-01-22T09:48:19.768Z,3.00
2023-01-22T09:50:46.926Z,3.00
2023-01-22T09:53:16.748Z,3.00
2023-01-22T09:55:52.642Z,3.00
2023-01-22T09:58:22.341Z,3.00
2023-01-22T10:00:53.333Z,3.00
2023-01-22T10:03:27.643Z,3.10
2023-01-22T10:06:02.044Z,3.10
2023-01-22T10:08:51.693Z,3.20
2023-01-22T10:11:18.416Z,3.20
2023-01-22T10:13:45.048Z,3.20
2023-01-22T10:16:12.257Z,3.20
2023-01-22T10:18:59.476Z,3.40
2023-01-22T10:21:37.283Z,3.50
2023-01-22T10:24:04.038Z,3.50
2023-01-22T10:26:36.901Z,3.50
2023-01-22T10:29:27.109Z,3.50
2023-01-22T10:31:56.912Z,3.50
2023-01-22T10:34:30.851Z,3.50
2023-01-22T10:37:02.806Z,3.40
2023-01-22T10:39:40.215Z,3.30
2023-01-22T10:42:07.069Z,3.50
2023-01-22T10:44:33.767Z,3.50
2023-01-22T10:47:21.012Z,3.50
2023-01-22T10:49:49.302Z,3.70
2023-01-22T10:52:27.801Z,3.60
2023-01-22T10:54:57.471Z,3.70
2023-01-22T10:57:34.246Z,3.80
2023-01-22T11:00:13.575Z,3.80
2023-01-22T11:02:48.846Z,3.80
2023-01-22T11:05:33.806Z,3.90
2023-01-22T11:08:06.817Z,3.90
2023-01-22T11:10:50.085Z,3.90
2023-01-22T11:13:23.362Z,3.80
2023-01-22T11:15:57.104Z,3.90
2023-01-22T11:18:38.724Z,3.80
2023-01-22T11:21:14.653Z,3.80
2023-01-22T11:23:44.333Z,3.80
2023-01-22T11:26:28.525Z,3.70
2023-01-22T11:29:07.225Z,3.70
2023-01-22T11:31:40.029Z,3.70
2023-01-22T11:34:22.976Z,3.70
2023-01-22T11:37:04.557Z,3.70
2023-01-22T11:40:01.063Z,3.60
2023-01-22T11:43:09.668Z,3.60
2023-01-22T11:45:52.603Z,3.70
2023-01-22T11:48:46.766Z,3.70
2023-01-22T11:51:29.722Z,3.60
2023-01-22T11:54:28.268Z,3.70
2023-01-22T11:57:07.996Z,3.60
2023-01-22T11:59:40.481Z,3.60
2023-01-22T12:02:45.096Z,3.70
2023-01-22T12:05:23.889Z,3.70
2023-01-22T12:08:06.155Z,3.70
2023-01-22T12:11:04.361Z,3.80
2023-01-22T12:13:43.378Z,3.80
2023-01-22T12:16:43.092Z,3.80
2023-01-22T12:19:40.559Z,3.90
2023-01-22T12:22:32.228Z,3.80
2023-01-22T12:25:11.041Z,3.80
2023-01-22T12:27:44.141Z,3.80
2023-01-22T12:30:20.094Z,3.80
2023-01-22T12:33:04.370Z,3.90
2023-01-22T12:35:32.470Z,3.80
2023-01-22T12:38:12.549Z,3.70
2023-01-22T12:41:06.066Z,3.80
2023-01-22T12:43:47.958Z,3.70
2023-01-22T12:46:29.601Z,3.70
2023-01-22T12:49:05.785Z,3.80
2023-01-22T12:51:40.384Z,3.70
2023-01-22T12:54:20.817Z,3.80
2023-01-22T12:56:52.444Z,3.80
2023-01-22T12:59:33.188Z,3.70
2023-01-22T13:02:03.442Z,3.80
2023-01-22T13:04:32.328Z,3.90
2023-01-22T13:07:21.199Z,3.80
2023-01-22T13:09:48.730Z,3.80
2023-01-22T13:12:39.615Z,3.90
2023-01-22T13:15:15.067Z,3.90
2023-01-22T13:17:42.198Z,3.90
2023-01-22T13:20:17.148Z,3.80
2023-01-22T13:22:44.071Z,3.80
2023-01-22T13:25:31.711Z,3.80
2023-01-22T13:27:59.965Z,3.80
2023-01-22T13:30:30.676Z,3.80
2023-01-22T13:33:12.173Z,3.70
2023-01-22T13:35:46.443Z,3.80
2023-01-22T13:38:24.299Z,3.70
2023-01-22T13:41:01.697Z,3.70
2023-01-22T13:43:28.797Z,3.70
2023-01-22T13:45:56.829Z,3.60
2023-01-22T13:48:25.345Z,3.60
2023-01-22T13:51:04.772Z,3.60
2023-01-22T13:53:44.099Z,3.60
2023-01-22T13:56:21.715Z,3.50
2023-01-22T13:58:49.595Z,3.60
2023-01-22T14:01:31.505Z,3.60
2023-01-22T14:04:04.510Z,3.60
2023-01-22T14:06:41.813Z,3.70
2023-01-22T14:09:09.474Z,3.70
2023-01-22T14:11:40.817Z,3.60
2023-01-22T14:14:19.386Z,3.60
2023-01-22T14:16:46.873Z,3.60
2023-01-22T14:19:13.831Z,3.60
2023-01-22T14:21:41.757Z,3.60
2023-01-22T14:24:09.037Z,3.60
2023-01-22T14:26:36.189Z,3.50
2023-01-22T14:29:02.967Z,3.60
2023-01-22T14:31:29.605Z,3.60
2023-01-22T14:33:56.324Z,3.60
2023-01-22T14:36:22.940Z,3.60
2023-01-22T14:38:51.368Z,3.60
2023-01-22T14:41:18.000Z,3.50
2023-01-22T14:43:44.577Z,3.50
2023-01-22T14:46:11.233Z,3.60
2023-01-22T14:48:38.623Z,3.50
2023-01-22T14:51:10.464Z,3.50
2023-01-22T14:53:37.699Z,3.50
2023-01-22T14:56:04.928Z,3.50
2023-01-22T14:58:31.628Z,3.50
2023-01-22T15:00:58.251Z,3.40
2023-01-22T15:03:24.863Z,3.50
2023-01-22T15:05:52.310Z,3.50
2023-01-22T15:08:19.206Z,3.40
2023-01-22T15:10:46.150Z,3.40
2023-01-22T15:13:12.838Z,3.40
2023-01-22T15:15:39.494Z,3.40
2023-01-22T15:18:06.151Z,3.40
2023-01-22T15:20:32.847Z,3.40
2023-01-22T15:22:59.451Z,3.40
2023-01-22T15:25:27.201Z,3.40
2023-01-22T15:27:53.826Z,3.40
2023-01-22T15:30:20.887Z,3.40
2023-01-22T15:32:47.659Z,3.30
2023-01-22T15:35:14.379Z,3.30
2023-01-22T15:37:41.102Z,3.40
2023-01-22T15:40:10.005Z,3.30
2023-01-22T15:42:36.806Z,3.30
2023-01-22T15:45:05.022Z,3.50
2023-01-22T15:47:31.639Z,3.40
2023-01-22T15:49:58.436Z,3.40
2023-01-22T15:52:25.020Z,3.40
2023-01-22T15:54:53.610Z,3.30
2023-01-22T15:57:20.479Z,3.30
2023-01-22T15:59:47.162Z,3.30
2023-01-22T16:02:13.942Z,3.20
2023-01-22T16:04:40.760Z,3.20
2023-01-22T16:07:07.348Z,3.30
2023-01-22T16:09:34.263Z,3.30
2023-01-22T16:12:01.109Z,3.20
2023-01-22T16:14:29.137Z,3.20
2023-01-22T16:16:55.825Z,3.20
2023-01-22T16:19:22.573Z,3.20
2023-01-22T16:21:49.219Z,3.20
2023-01-22T16:24:15.884Z,3.20
2023-01-22T16:26:42.721Z,3.20
2023-01-22T16:29:10.823Z,3.10
2023-01-22T16:31:37.932Z,3.10
2023-01-22T16:34:14.278Z,3.10
2023-01-22T16:36:41.930Z,3.10
2023-01-22T16:39:10.353Z,3.20
2023-01-22T16:41:37.186Z,3.10
2023-01-22T16:44:11.314Z,3.10
2023-01-22T16:46:43.281Z,3.10
2023-01-22T16:49:19.115Z,3.10
2023-01-22T16:51:47.877Z,3.10
2023-01-22T16:54:20.694Z,3.10
2023-01-22T16:56:48.245Z,3.10
2023-01-22T16:59:15.119Z,3.10
2023-01-22T17:01:42.076Z,3.10
2023-01-22T17:04:08.976Z,3.10
2023-01-22T17:06:41.837Z,3.10
2023-01-22T17:09:17.061Z,3.10
2023-01-22T17:11:46.805Z,3.10
2023-01-22T17:14:15.485Z,3.00
2023-01-22T17:16:42.419Z,3.10
2023-01-22T17:19:09.075Z,3.10
2023-01-22T17:21:35.623Z,3.10
2023-01-22T17:24:03.691Z,3.10
2023-01-22T17:26:31.110Z,3.10
2023-01-22T17:28:57.907Z,3.10
2023-01-22T17:31:24.891Z,3.10
2023-01-22T17:33:55.277Z,3.10
2023-01-22T17:36:24.212Z,3.00
2023-01-22T17:38:52.076Z,3.10
2023-01-22T17:41:20.554Z,3.00
2023-01-22T17:43:48.710Z,3.00
2023-01-22T17:46:17.916Z,3.00
2023-01-22T17:48:46.062Z,3.00
2023-01-22T17:51:15.108Z,3.00
2023-01-22T17:53:43.765Z,3.00
2023-01-22T17:56:15.964Z,2.90
2023-01-22T17:58:45.220Z,3.00
2023-01-22T18:01:13.737Z,3.00
2023-01-22T18:03:40.885Z,3.00
2023-01-22T18:06:07.748Z,3.00
2023-01-22T18:08:38.323Z,3.00
2023-01-22T18:11:07.620Z,3.00
2023-01-22T18:13:35.408Z,3.00
2023-01-22T18:16:02.577Z,2.90
2023-01-22T18:18:29.517Z,3.00
2023-01-22T18:20:56.419Z,3.00
2023-01-22T18:23:23.142Z,3.10
2023-01-22T18:25:50.542Z,3.00
2023-01-22T18:28:18.177Z,3.00
2023-01-22T18:30:46.420Z,3.00
2023-01-22T18:33:14.855Z,2.90
2023-01-22T18:35:46.621Z,2.90
2023-01-22T18:38:13.720Z,2.90
2023-01-22T18:40:40.608Z,3.00
2023-01-22T18:43:09.996Z,2.90
2023-01-22T18:45:37.628Z,2.90
2023-01-22T18:48:04.685Z,2.90
2023-01-22T18:50:31.548Z,2.80
2023-01-22T18:53:00.777Z,2.90
2023-01-22T18:55:28.308Z,2.80
2023-01-22T18:57:58.303Z,2.90
2023-01-22T19:00:25.059Z,2.90
2023-01-22T19:02:55.804Z,2.90
2023-01-22T19:05:24.437Z,2.80
2023-01-22T19:07:52.083Z,2.80
2023-01-22T19:10:19.464Z,2.80
2023-01-22T19:12:46.589Z,2.90
2023-01-22T19:15:13.409Z,2.80
2023-01-22T19:17:40.149Z,2.80
2023-01-22T19:20:08.749Z,2.80
2023-01-22T19:22:35.637Z,2.70
2023-01-22T19:25:02.809Z,2.70
2023-01-22T19:27:30.014Z,2.70
2023-01-22T19:29:56.733Z,2.70
2023-01-22T19:32:27.756Z,2.70
2023-01-22T19:34:57.822Z,2.70
2023-01-22T19:37:25.063Z,2.70
2023-01-22T19:39:51.844Z,2.70
2023-01-22T19:42:18.737Z,2.70
2023-01-22T19:44:45.589Z,2.70
2023-01-22T19:47:12.434Z,2.70
2023-01-22T19:49:39.261Z,2.70
2023-01-22T19:52:05.943Z,2.70
2023-01-22T19:54:33.600Z,2.70
2023-01-22T19:57:00.361Z,2.70
2023-01-22T19:59:27.056Z,2.70
2023-01-22T20:01:53.904Z,2.70
2023-01-22T20:04:26.922Z,2.70
2023-01-22T20:07:02.065Z,2.80
2023-01-22T20:09:29.806Z,2.80
2023-01-22T20:11:57.991Z,2.70
2023-01-22T20:14:33.547Z,2.70
2023-01-22T20:17:02.175Z,2.70
2023-01-22T20:19:29.653Z,2.70
2023-01-22T20:21:56.737Z,2.70
2023-01-22T20:24:23.370Z,2.70
2023-01-22T20:26:53.938Z,2.70
2023-01-22T20:29:20.619Z,2.70
2023-01-22T20:31:51.284Z,2.80
2023-01-22T20:34:17.914Z,2.70
2023-01-22T20:36:44.629Z,2.70
2023-01-22T20:39:11.375Z,2.70
2023-01-22T20:41:38.127Z,2.70
2023-01-22T20:44:06.437Z,2.70
2023-01-22T20:46:34.568Z,2.70
2023-01-22T20:49:01.368Z,2.70
2023-01-22T20:51:29.731Z,2.80
2023-01-22T20:53:57.456Z,2.70
2023-01-22T20:56:28.791Z,2.80
2023-01-22T20:59:01.253Z,2.70
2023-01-22T21:01:28.713Z,2.70
2023-01-22T21:03:57.445Z,2.80
2023-01-22T21:06:25.884Z,2.70
2023-01-22T21:08:55.937Z,2.70
2023-01-22T21:11:24.004Z,2.70
2023-01-22T21:13:52.643Z,2.70
2023-01-22T21:16:26.361Z,2.60
2023-01-22T21:18:54.954Z,2.60
2023-01-22T21:21:21.801Z,2.70
2023-01-22T21:23:50.522Z,2.60
2023-01-22T21:26:19.296Z,2.60
2023-01-22T21:28:48.125Z,2.60
2023-01-22T21:31:18.163Z,2.60
2023-01-22T21:33:46.424Z,2.60
2023-01-22T21:36:13.613Z,2.50
2023-01-22T21:38:40.205Z,2.50
2023-01-22T21:41:12.515Z,2.50
2023-01-22T21:43:59.812Z,2.50
2023-01-22T21:46:27.855Z,2.50
2023-01-22T21:48:59.499Z,2.50
2023-01-22T21:51:27.331Z,2.50
2023-01-22T21:53:55.995Z,2.40
2023-01-22T21:56:23.531Z,2.40
2023-01-22T21:58:50.583Z,2.40
2023-01-22T22:01:20.413Z,2.50
2023-01-22T22:03:47.398Z,2.50
2023-01-22T22:06:14.340Z,2.50
2023-01-22T22:08:43.434Z,2.50
2023-01-22T22:11:12.369Z,2.60
2023-01-22T22:13:40.450Z,2.50
2023-01-22T22:16:08.748Z,2.50
2023-01-22T22:18:35.673Z,2.50
2023-01-22T22:21:04.998Z,2.50
2023-01-22T22:23:32.304Z,2.50
2023-01-22T22:26:00.476Z,2.50
2023-01-22T22:28:27.785Z,2.50
2023-01-22T22:31:01.232Z,2.40
2023-01-22T22:33:27.998Z,2.50
2023-01-22T22:35:54.743Z,2.50
2023-01-22T22:38:21.384Z,2.40
2023-01-22T22:40:58.937Z,2.40
2023-01-22T22:43:25.812Z,2.40
2023-01-22T22:45:52.572Z,2.40
2023-01-22T22:48:19.633Z,2.40
2023-01-22T22:50:46.376Z,2.40
2023-01-22T22:53:13.001Z,2.40
2023-01-22T22:55:42.549Z,2.40
2023-01-22T22:58:09.602Z,2.40
2023-01-22T23:00:38.059Z,2.40
2023-01-22T23:03:04.882Z,2.40
2023-01-22T23:05:36.666Z,2.40
2023-01-22T23:08:03.984Z,2.40
2023-01-22T23:10:30.732Z,2.40
2023-01-22T23:12:59.903Z,2.40
2023-01-22T23:15:28.504Z,2.40
2023-01-22T23:17:57.054Z,2.30
2023-01-22T23:20:24.855Z,2.40
2023-01-22T23:22:58.207Z,2.30
2023-01-22T23:25:25.161Z,2.30
2023-01-22T23:27:52.230Z,2.30
2023-01-22T23:30:19.636Z,2.30
2023-01-22T23:32:46.340Z,2.30
2023-01-22T23:35:12.968Z,2.40
2023-01-22T23:37:39.537Z,2.40
2023-01-22T23:40:06.891Z,2.40
2023-01-22T23:42:33.562Z,2.40
2023-01-22T23:45:00.144Z,2.30
2023-01-22T23:47:27.258Z,2.30
2023-01-22T23:49:54.005Z,2.30
2023-01-22T23:52:21.140Z,2.30
2023-01-22T23:54:48.012Z,2.30
2023-01-22T23:57:14.624Z,2.30
2023-01-22T23:59:41.366Z,2.40
